Time;durP1;ratioP1;P1;durP2;ratioP2;P2;SDS_P1;SDS_P2;PMS_P1;PMS_P2;Temp;Humidity;BMP_temperature;BMP_pressure;BME280_temperature;BME280_humidity;BME280_pressure;Samples;Min_cycle;Max_cycle;Signal;HPM_P1;HPM_P2
2022/04/29 00:00:48;;;;;;;9.93;8.87;;;;;;;10.42;80.41;99161.69;4135134;28;20637;-84
2022/04/29 00:02:53;;;;;;;9.80;8.83;;;;;;;10.36;80.24;99162.00;4138973;28;20660;-84
2022/04/29 00:04:57;;;;;;;10.93;9.17;;;;;;;10.31;80.74;99150.09;4133006;28;20648;-84
2022/04/29 00:07:01;;;;;;;10.57;9.57;;;;;;;10.23;80.75;99155.69;4142894;28;20643;-84
2022/04/29 00:09:04;;;;;;;10.27;9.30;;;;;;;10.16;80.56;99146.47;4137486;28;20714;-84
2022/04/29 00:11:08;;;;;;;9.60;8.50;;;;;;;10.12;80.37;99152.78;4136552;28;20654;-84
2022/04/29 00:13:15;;;;;;;10.17;9.17;;;;;;;10.09;81.08;99152.94;4132794;28;20636;-84
2022/04/29 00:15:19;;;;;;;11.40;9.87;;;;;;;10.07;80.60;99152.16;4133851;28;20649;-84
2022/04/29 00:17:23;;;;;;;9.07;8.20;;;;;;;10.06;81.26;99154.84;4152158;28;20718;-84
2022/04/29 00:19:27;;;;;;;11.33;8.90;;;;;;;10.05;80.97;99148.78;4136397;28;21138;-84
2022/04/29 00:21:32;;;;;;;10.33;9.23;;;;;;;10.02;81.88;99143.72;4134703;28;20631;-83
2022/04/29 00:23:35;;;;;;;11.90;9.30;;;;;;;9.99;81.32;99154.28;4133164;28;20727;-85
2022/04/29 00:25:39;;;;;;;10.50;9.50;;;;;;;9.92;81.41;99144.19;4131716;28;20975;-83
2022/04/29 00:27:42;;;;;;;10.83;9.67;;;;;;;9.87;81.61;99149.63;4132543;28;21063;-84
2022/04/29 00:29:47;;;;;;;11.27;9.97;;;;;;;9.87;82.01;99148.81;4138167;28;20642;-84
2022/04/29 00:31:50;;;;;;;11.00;9.87;;;;;;;9.85;81.41;99151.47;4139213;28;20648;-83
2022/04/29 00:33:54;;;;;;;11.00;10.00;;;;;;;9.84;82.40;99144.56;4137896;28;20651;-84
2022/04/29 00:35:57;;;;;;;11.67;9.73;;;;;;;9.83;81.66;99139.44;4116754;28;20628;-84
2022/04/29 00:38:02;;;;;;;11.67;10.10;;;;;;;9.77;82.04;99137.13;4131282;28;20642;-84
2022/04/29 00:40:07;;;;;;;11.57;10.10;;;;;;;9.74;81.86;99132.09;4133947;28;20723;-84
2022/04/29 00:42:11;;;;;;;11.73;10.27;;;;;;;9.74;82.01;99123.41;4123422;28;20639;-84
2022/04/29 00:44:15;;;;;;;10.37;9.30;;;;;;;9.68;82.11;99129.78;4140068;28;21749;-84
2022/04/29 00:46:18;;;;;;;12.53;10.50;;;;;;;9.62;82.55;99129.22;4133231;28;20633;-84
2022/04/29 00:48:21;;;;;;;12.00;10.00;;;;;;;9.59;82.47;99122.41;4150037;28;20648;-84
2022/04/29 00:50:26;;;;;;;10.67;9.57;;;;;;;9.58;82.16;99114.69;4139800;28;20637;-84
2022/04/29 00:52:32;;;;;;;10.43;9.40;;;;;;;9.62;83.37;99118.81;4135841;28;20628;-83
2022/04/29 00:54:38;;;;;;;11.37;10.17;;;;;;;9.60;82.72;99113.66;4140752;28;20659;-84
2022/04/29 00:56:43;;;;;;;11.07;9.83;;;;;;;9.57;82.30;99120.78;4134744;28;20644;-84
2022/04/29 00:58:52;;;;;;;11.50;10.30;;;;;;;9.56;82.42;99112.16;4134668;28;20643;-84
2022/04/29 01:00:55;;;;;;;10.57;9.57;;;;;;;9.53;82.81;99109.69;4136179;28;20743;-84
2022/04/29 01:03:01;;;;;;;10.30;9.30;;;;;;;9.55;82.96;99113.06;4131729;28;20651;-84
2022/04/29 01:05:06;;;;;;;10.30;9.30;;;;;;;9.50;81.92;99115.03;4136810;28;20647;-84
2022/04/29 01:07:09;;;;;;;10.80;9.70;;;;;;;9.47;81.98;99115.19;4139596;28;20641;-84
2022/04/29 01:09:13;;;;;;;13.07;10.63;;;;;;;9.45;82.26;99103.97;4132229;28;20631;-84
2022/04/29 01:11:19;;;;;;;11.40;10.00;;;;;;;9.43;82.99;99118.00;4138411;28;20646;-84
2022/04/29 01:13:23;;;;;;;10.70;9.57;;;;;;;9.40;83.07;99112.94;4138578;28;20705;-84
2022/04/29 01:15:27;;;;;;;10.73;9.63;;;;;;;9.36;82.44;99108.78;4132098;28;20644;-84
2022/04/29 01:17:30;;;;;;;10.47;9.30;;;;;;;9.33;83.65;99111.53;4134390;28;20656;-84
2022/04/29 01:19:33;;;;;;;10.03;9.03;;;;;;;9.28;82.45;99107.47;4137959;28;20623;-84
2022/04/29 01:21:37;;;;;;;11.63;10.40;;;;;;;9.24;83.71;99109.38;4136433;28;20778;-84
2022/04/29 01:23:43;;;;;;;11.40;10.20;;;;;;;9.25;82.30;99100.66;4134082;28;20675;-84
2022/04/29 01:25:47;;;;;;;10.20;9.20;;;;;;;9.21;83.94;99106.91;4121512;28;20675;-84
2022/04/29 01:27:51;;;;;;;10.20;9.13;;;;;;;9.19;83.15;99094.91;4135626;28;20682;-84
2022/04/29 01:29:59;;;;;;;12.73;9.67;;;;;;;9.17;83.39;99084.56;4143083;28;20638;-84
2022/04/29 01:32:05;;;;;;;10.47;9.40;;;;;;;9.16;83.14;99088.06;4139059;28;21015;-84
2022/04/29 01:34:08;;;;;;;10.20;9.20;;;;;;;9.17;84.04;99094.09;4137325;28;20628;-84
2022/04/29 01:36:11;;;;;;;9.70;8.80;;;;;;;9.15;82.76;99094.19;4132209;28;20651;-84
2022/04/29 01:38:15;;;;;;;10.77;9.63;;;;;;;9.12;84.17;99086.50;4135032;28;20675;-84
2022/04/29 01:40:20;;;;;;;10.13;9.00;;;;;;;9.12;84.28;99088.28;4136851;28;20646;-84
2022/04/29 01:42:24;;;;;;;10.63;9.47;;;;;;;9.14;82.67;99089.91;4142199;28;20630;-84
2022/04/29 01:44:29;;;;;;;10.10;9.10;;;;;;;9.10;83.14;99090.13;4138796;28;20697;-84
2022/04/29 01:46:33;;;;;;;10.20;9.27;;;;;;;9.09;84.26;99089.25;4137156;28;21039;-84
2022/04/29 01:49:15;;;;;;;12.23;9.67;;;;;;;9.05;84.08;99082.53;4140252;28;21481;-83
2022/04/29 01:51:27;;;;;;;10.07;9.07;;;;;;;9.02;83.88;99085.28;4138643;28;21276;-84
2022/04/29 01:53:31;;;;;;;10.13;9.20;;;;;;;9.00;83.27;99084.47;4135532;28;21085;-84
2022/04/29 01:55:36;;;;;;;10.00;8.77;;;;;;;9.00;83.40;99086.25;4139887;28;20658;-84
2022/04/29 01:57:40;;;;;;;11.17;9.97;;;;;;;8.97;83.88;99086.38;4137561;28;20224;-84
2022/04/29 01:59:43;;;;;;;9.80;8.67;;;;;;;8.95;83.12;99094.25;4142483;28;20648;-84
2022/04/29 02:02:00;;;;;;;10.30;9.00;;;;;;;8.93;84.16;99090.91;4142618;28;20963;-84
2022/04/29 02:04:03;;;;;;;9.87;8.97;;;;;;;8.92;84.11;99094.41;4140007;28;20700;-84
2022/04/29 02:06:07;;;;;;;12.87;9.17;;;;;;;8.94;83.37;99092.59;4140165;28;21243;-84
2022/04/29 02:08:10;;;;;;;9.90;8.97;;;;;;;8.93;83.36;99096.09;4137093;28;20780;-84
2022/04/29 02:10:17;;;;;;;12.83;9.80;;;;;;;8.92;84.13;99084.94;4142481;28;20647;-84
2022/04/29 02:12:23;;;;;;;11.65;10.35;;;;;;;8.92;83.33;99087.53;4126664;28;20647;-84
2022/04/29 02:14:33;;;;;;;11.47;10.37;;;;;;;8.92;83.08;99084.94;4140958;28;20637;-84
2022/04/29 02:16:37;;;;;;;12.77;9.57;;;;;;;8.88;84.11;99088.56;4135760;28;21227;-84
2022/04/29 02:18:41;;;;;;;11.17;10.07;;;;;;;8.84;83.53;99082.69;4135248;28;20699;-84
2022/04/29 02:20:47;;;;;;;11.48;10.27;;;;;;;8.82;83.12;99071.47;4138953;28;21340;-84
2022/04/29 02:22:52;;;;;;;11.67;10.47;;;;;;;8.79;84.68;99082.03;4125024;28;20246;-84
2022/04/29 02:24:56;;;;;;;11.30;10.10;;;;;;;8.78;83.36;99079.50;4126482;28;20750;-84
2022/04/29 02:26:59;;;;;;;10.23;9.23;;;;;;;8.75;83.81;99084.81;4135913;28;21441;-84
2022/04/29 02:29:04;;;;;;;11.40;9.47;;;;;;;8.74;84.52;99077.97;4133058;28;20630;-84
2022/04/29 02:31:07;;;;;;;9.82;8.88;;;;;;;8.74;85.06;99073.59;4140241;28;21221;-84
2022/04/29 02:33:11;;;;;;;10.70;9.63;;;;;;;8.71;84.24;99073.72;4125650;28;20212;-84
2022/04/29 02:35:14;;;;;;;11.93;9.93;;;;;;;8.70;83.58;99079.84;4148370;28;20207;-84
2022/04/29 02:37:19;;;;;;;10.90;9.90;;;;;;;8.69;83.83;99069.50;4140364;28;20635;-84
2022/04/29 02:39:24;;;;;;;10.70;9.60;;;;;;;8.68;84.41;99066.06;4140601;28;21255;-84
2022/04/29 02:41:28;;;;;;;11.70;10.60;;;;;;;8.66;85.27;99064.44;4150574;28;21243;-84
2022/04/29 02:43:34;;;;;;;10.95;9.82;;;;;;;8.66;83.85;99069.63;4135843;28;20208;-84
2022/04/29 02:45:39;;;;;;;11.17;10.07;;;;;;;8.63;83.62;99067.19;4150781;28;20219;-84
2022/04/29 02:47:45;;;;;;;11.40;10.30;;;;;;;8.63;84.28;99062.84;4148134;28;20677;-84
2022/04/29 02:49:48;;;;;;;11.23;9.97;;;;;;;8.61;85.04;99061.22;4137714;28;20635;-84
2022/04/29 02:51:51;;;;;;;11.00;9.90;;;;;;;8.59;84.99;99065.66;4136105;28;21183;-83
2022/04/29 02:53:54;;;;;;;11.00;9.90;;;;;;;8.58;83.90;99063.94;4138071;28;20631;-84
2022/04/29 02:55:58;;;;;;;10.82;9.77;;;;;;;8.56;84.70;99060.59;4126467;28;20627;-84
2022/04/29 02:58:11;;;;;;;10.52;9.52;;;;;;;8.53;83.88;99058.94;4137346;28;20266;-84
2022/04/29 03:00:18;;;;;;;14.73;10.60;;;;;;;8.52;85.37;99064.22;4139366;28;20300;-84
2022/04/29 03:02:24;;;;;;;11.73;10.57;;;;;;;8.49;85.60;99064.34;4152527;28;20635;-84
2022/04/29 03:04:27;;;;;;;11.30;10.10;;;;;;;8.45;84.43;99068.03;4143575;28;21245;-83
2022/04/29 03:06:31;;;;;;;12.75;10.10;;;;;;;8.43;85.49;99069.81;4142749;28;20784;-84
2022/04/29 03:08:34;;;;;;;10.50;9.50;;;;;;;8.44;84.74;99068.09;4139993;28;20212;-84
2022/04/29 03:10:38;;;;;;;11.00;9.90;;;;;;;8.41;85.83;99063.88;4134903;28;20628;-84
2022/04/29 03:12:41;;;;;;;11.05;9.85;;;;;;;8.39;84.39;99055.31;4136847;28;21243;-84
2022/04/29 03:14:47;;;;;;;12.25;10.50;;;;;;;8.43;84.56;99056.84;4119540;28;20204;-84
2022/04/29 03:16:50;;;;;;;11.50;10.40;;;;;;;8.41;84.49;99056.06;4150402;28;20652;-83
2022/04/29 03:18:54;;;;;;;12.73;10.53;;;;;;;8.38;85.80;99064.00;4153581;28;20707;-84
2022/04/29 03:20:57;;;;;;;10.40;9.43;;;;;;;8.36;85.25;99055.44;4138319;28;20698;-83
2022/04/29 03:23:01;;;;;;;11.60;10.50;;;;;;;8.32;85.41;99051.28;4138593;28;20643;-84
2022/04/29 03:25:06;;;;;;;10.33;9.33;;;;;;;8.30;85.28;99053.09;4131828;28;20691;-84
2022/04/29 03:27:09;;;;;;;12.68;11.07;;;;;;;8.29;85.07;99048.81;4138407;28;20726;-83
2022/04/29 03:29:12;;;;;;;11.75;10.55;;;;;;;8.28;85.66;99046.28;4134183;28;20207;-84
2022/04/29 03:31:16;;;;;;;11.50;10.30;;;;;;;8.25;85.33;99051.59;4140821;28;20208;-84
2022/04/29 03:33:38;;;;;;;11.90;10.70;;;;;;;8.24;84.61;99053.38;4134935;28;21235;-84
2022/04/29 03:35:43;;;;;;;11.40;10.20;;;;;;;8.20;85.56;99049.22;4138617;28;20277;-84
2022/04/29 03:37:53;;;;;;;11.13;10.02;;;;;;;8.22;85.41;99044.78;4123917;28;20227;-84
2022/04/29 03:39:57;;;;;;;12.30;10.80;;;;;;;8.20;84.78;99050.97;4145482;28;20210;-84
2022/04/29 03:42:00;;;;;;;12.52;10.63;;;;;;;8.16;84.69;99045.06;4152257;28;20706;-84
2022/04/29 03:44:04;;;;;;;13.95;11.30;;;;;;;8.16;84.45;99033.81;4138246;28;20215;-84
2022/04/29 03:46:12;;;;;;;12.73;11.52;;;;;;;8.14;85.31;99039.09;4139987;28;20250;-84
2022/04/29 03:51:20;;;;;;;12.38;10.95;;;;;;;8.08;86.05;99026.31;4150392;28;20654;-84
2022/04/29 03:53:25;;;;;;;12.80;11.50;;;;;;;8.10;85.49;99040.13;4146506;28;20199;-83
2022/04/29 03:55:34;;;;;;;12.20;11.00;;;;;;;8.10;85.50;99034.91;4119124;28;20671;-83
2022/04/29 03:57:38;;;;;;;13.00;11.43;;;;;;;8.09;85.08;99038.41;4148280;28;20207;-84
2022/04/29 03:59:42;;;;;;;14.18;12.00;;;;;;;8.11;85.02;99038.34;4139754;28;20290;-84
2022/04/29 04:01:46;;;;;;;12.43;11.18;;;;;;;8.11;84.79;99039.22;4125295;28;20212;-84
2022/04/29 04:03:50;;;;;;;13.63;12.23;;;;;;;8.12;86.02;99037.47;4142480;28;20269;-84
2022/04/29 04:08:12;;;;;;;14.73;12.82;;;;;;;8.10;84.77;99040.13;4134506;28;20212;-84
2022/04/29 04:10:20;;;;;;;13.75;12.30;;;;;;;8.10;85.60;99045.31;4123726;28;20209;-84
2022/04/29 04:12:24;;;;;;;15.15;11.70;;;;;;;8.10;86.27;99040.13;4136655;28;20217;-84
2022/04/29 04:14:53;;;;;;;14.02;12.60;;;;;;;8.12;86.28;99040.91;4128152;28;20254;-84
2022/04/29 04:16:58;;;;;;;13.30;11.98;;;;;;;8.10;86.00;99047.91;4136325;28;20205;-84
2022/04/29 04:19:02;;;;;;;13.90;12.50;;;;;;;8.11;86.33;99039.22;4126612;28;20273;-83
2022/04/29 04:21:06;;;;;;;14.23;11.68;;;;;;;8.10;85.07;99041.84;4129131;28;20205;-84
2022/04/29 04:23:10;;;;;;;15.30;12.90;;;;;;;8.09;86.75;99041.00;4140799;28;20772;-84
2022/04/29 04:25:15;;;;;;;12.95;11.70;;;;;;;8.08;86.31;99035.88;4118054;28;20236;-84
2022/04/29 04:27:19;;;;;;;13.80;12.50;;;;;;;8.08;85.01;99046.28;4133375;28;20200;-84
2022/04/29 04:29:22;;;;;;;14.40;12.63;;;;;;;8.08;85.11;99051.47;4138972;28;20638;-84
2022/04/29 04:31:26;;;;;;;14.65;13.05;;;;;;;8.10;85.14;99049.63;4140334;28;20635;-84
2022/04/29 04:33:30;;;;;;;13.48;12.13;;;;;;;8.13;86.32;99047.81;4134582;28;20310;-84
2022/04/29 04:35:33;;;;;;;13.65;12.05;;;;;;;8.15;85.73;99052.94;4137264;28;20212;-83
2022/04/29 04:37:37;;;;;;;13.52;12.00;;;;;;;8.18;85.43;99048.44;4135598;28;20214;-83
2022/04/29 04:39:41;;;;;;;18.30;12.40;;;;;;;8.21;86.69;99048.31;4125299;28;20207;-84
2022/04/29 04:41:50;;;;;;;17.38;12.57;;;;;;;8.25;86.78;99051.59;4151875;28;20666;-84
2022/04/29 04:44:01;;;;;;;14.85;13.20;;;;;;;8.32;85.62;99050.44;4153130;28;20306;-83
2022/04/29 04:46:06;;;;;;;13.87;12.27;;;;;;;8.36;86.92;99060.63;4136777;28;20231;-84
2022/04/29 04:48:15;;;;;;;14.93;12.07;;;;;;;8.43;86.60;99063.78;4139604;28;20643;-82
2022/04/29 04:50:39;;;;;;;14.52;12.00;;;;;;;8.48;86.28;99066.13;4134067;28;20219;-84
2022/04/29 04:52:45;;;;;;;13.43;11.90;;;;;;;8.53;85.52;99060.72;4133461;28;20789;-85
2022/04/29 04:54:49;;;;;;;13.65;12.10;;;;;;;8.56;86.49;99074.41;4121109;28;21561;-85
2022/04/29 04:56:54;;;;;;;13.48;12.18;;;;;;;8.62;85.83;99078.50;4134990;28;20665;-83
2022/04/29 04:58:58;;;;;;;13.27;11.77;;;;;;;8.68;86.13;99078.22;4138707;28;20214;-83
2022/04/29 05:01:02;;;;;;;14.23;12.45;;;;;;;8.76;86.17;99069.16;4139398;28;20204;-83
2022/04/29 05:03:24;;;;;;;13.00;11.70;;;;;;;8.84;85.04;99069.66;4138421;28;20676;-83
2022/04/29 05:05:48;;;;;;;13.25;11.90;;;;;;;8.90;84.00;99069.41;4148934;28;20229;-83
2022/04/29 05:07:51;;;;;;;13.75;12.38;;;;;;;8.92;85.07;99065.78;4138998;28;20212;-83
2022/04/29 05:09:57;;;;;;;12.85;11.55;;;;;;;8.93;84.53;99071.84;4136640;28;20206;-83
2022/04/29 05:12:02;;;;;;;13.17;11.77;;;;;;;8.95;84.57;99063.03;4140188;28;20687;-86
2022/04/29 05:14:19;;;;;;;12.65;11.20;;;;;;;8.96;83.81;99066.50;4139343;28;20646;-84
2022/04/29 05:16:23;;;;;;;14.27;12.10;;;;;;;9.01;83.46;99067.13;4129582;28;20231;-84
2022/04/29 05:18:46;;;;;;;14.07;12.40;;;;;;;9.09;84.92;99065.84;4152209;28;20700;-85
2022/04/29 05:20:52;;;;;;;14.18;11.90;;;;;;;9.17;84.34;99068.09;4140336;28;20641;-85
2022/04/29 05:22:56;;;;;;;14.13;12.20;;;;;;;9.24;85.33;99067.72;4124006;28;20208;-87
2022/04/29 05:24:59;;;;;;;15.17;12.40;;;;;;;9.32;85.25;99068.22;4141982;28;20707;-88
2022/04/29 05:27:37;;;;;;;13.98;12.40;;;;;;;9.49;84.66;99078.66;4144741;28;20640;-87
2022/04/29 05:29:52;;;;;;;12.97;11.77;;;;;;;9.61;83.04;99083.28;4139961;28;20612;-88
2022/04/29 05:32:22;;;;;;;17.47;13.30;;;;;;;9.73;82.63;99087.91;4146632;28;21287;-88
2022/04/29 05:34:44;;;;;;;14.80;13.20;;;;;;;9.84;81.42;99089.88;4139811;28;21428;-88
2022/04/29 05:37:14;;;;;;;14.10;12.50;;;;;;;9.85;80.97;99091.56;4140040;28;21261;-87
2022/04/29 05:44:12;;;;;;;14.40;13.00;;;;;;;10.02;82.37;99098.59;4123687;28;20677;-87
2022/04/29 05:46:16;;;;;;;21.40;18.67;;;;;;;10.07;82.68;99101.78;4123235;28;20216;-88
2022/04/29 05:48:21;;;;;;;14.53;13.03;;;;;;;10.08;81.72;99103.50;4126140;28;20651;-88
2022/04/29 05:50:25;;;;;;;13.97;12.57;;;;;;;10.11;81.77;99100.72;4137620;28;20661;-87
2022/04/29 05:52:29;;;;;;;13.90;12.47;;;;;;;10.21;81.25;99108.00;4127889;28;20732;-88
2022/04/29 05:54:33;;;;;;;14.20;12.80;;;;;;;10.38;81.93;99105.38;4131042;28;20659;-88
2022/04/29 05:56:36;;;;;;;13.93;12.50;;;;;;;10.51;82.18;99107.28;4135530;28;21608;-88
2022/04/29 05:58:44;;;;;;;16.37;13.40;;;;;;;10.67;81.46;99117.75;4119705;28;21473;-87
2022/04/29 06:01:07;;;;;;;15.37;13.77;;;;;;;10.91;80.30;99112.06;4133363;28;20639;-84
2022/04/29 06:03:11;;;;;;;14.77;13.40;;;;;;;11.12;79.41;99103.94;4143354;28;20630;-83
2022/04/29 06:05:15;;;;;;;15.10;13.67;;;;;;;11.26;79.85;99105.78;4141501;28;21263;-83
2022/04/29 06:07:20;;;;;;;16.60;14.17;;;;;;;11.28;79.39;99110.84;4125509;28;20670;-84
2022/04/29 06:09:25;;;;;;;17.17;15.50;;;;;;;11.28;79.88;99107.41;4128207;28;20664;-84
2022/04/29 06:11:29;;;;;;;14.90;13.40;;;;;;;11.29;80.85;99114.31;4140081;28;20633;-84
2022/04/29 06:13:34;;;;;;;16.87;14.13;;;;;;;11.34;80.14;99112.28;4144982;28;20633;-84
2022/04/29 06:15:59;;;;;;;18.20;14.30;;;;;;;11.56;80.66;99104.97;4143727;28;20637;-84
2022/04/29 06:18:22;;;;;;;16.10;14.50;;;;;;;11.89;79.54;99107.38;4144920;28;20640;-84
2022/04/29 06:20:46;;;;;;;15.30;13.90;;;;;;;12.30;76.06;99113.66;4129151;28;20647;-84
2022/04/29 06:23:10;;;;;;;15.20;13.60;;;;;;;12.57;75.64;99110.25;4146172;28;21000;-84
2022/04/29 06:25:14;;;;;;;18.53;14.03;;;;;;;12.88;75.22;99116.16;4144578;28;20640;-84
2022/04/29 06:27:21;;;;;;;16.23;14.63;;;;;;;13.20;75.14;99117.66;4125871;28;20708;-84
2022/04/29 06:29:25;;;;;;;18.30;14.77;;;;;;;13.43;72.84;99112.63;4143248;28;20634;-84
2022/04/29 06:31:34;;;;;;;15.50;13.80;;;;;;;13.69;74.74;99115.25;4127761;28;20660;-83
2022/04/29 06:34:16;;;;;;;16.47;14.87;;;;;;;14.11;72.63;99122.16;4116359;28;20631;-89
2022/04/29 06:36:20;;;;;;;16.33;14.80;;;;;;;14.27;71.38;99126.31;4130550;28;20743;-90
2022/04/29 06:38:28;;;;;;;17.93;14.27;;;;;;;14.44;71.99;99121.59;4138919;28;20653;-90
2022/04/29 06:40:31;;;;;;;15.83;14.17;;;;;;;14.68;71.64;99120.75;4132905;28;20631;-90
2022/04/29 06:42:45;;;;;;;16.17;14.60;;;;;;;15.02;73.15;99116.66;4132702;28;20893;-85
2022/04/29 06:45:08;;;;;;;16.17;14.57;;;;;;;15.35;68.91;99120.41;4137618;28;21179;-85
2022/04/29 06:47:30;;;;;;;16.43;14.73;;;;;;;15.60;68.15;99119.38;4135757;28;20665;-85
2022/04/29 06:49:53;;;;;;;16.20;14.60;;;;;;;15.70;69.90;99124.84;4137350;28;20629;-91
2022/04/29 06:52:23;;;;;;;17.20;15.07;;;;;;;16.00;70.70;99123.44;4136959;28;20701;-89
2022/04/29 06:54:38;;;;;;;16.57;14.70;;;;;;;16.11;67.25;99115.59;4124369;28;20695;-91
2022/04/29 06:56:47;;;;;;;16.77;14.33;;;;;;;16.21;69.69;99119.22;4141964;28;20621;-90
2022/04/29 06:58:51;;;;;;;16.20;14.60;;;;;;;16.35;68.28;99119.06;4135791;28;20671;-90
2022/04/29 07:00:56;;;;;;;16.73;15.03;;;;;;;16.46;70.75;99122.56;4151852;28;20689;-90
2022/04/29 07:03:02;;;;;;;15.40;13.97;;;;;;;16.47;71.52;99112.88;4140739;28;20670;-90
2022/04/29 07:05:09;;;;;;;15.33;13.90;;;;;;;16.49;70.52;99118.84;4121991;28;21255;-92
2022/04/29 07:07:14;;;;;;;15.60;14.10;;;;;;;16.49;69.44;99111.78;4137948;28;20650;-89
2022/04/29 07:09:18;;;;;;;16.17;14.67;;;;;;;16.44;67.75;99113.09;4135242;28;20643;-89
2022/04/29 07:11:40;;;;;;;15.97;14.37;;;;;;;16.22;68.27;99105.13;4152495;28;20636;-90
2022/04/29 07:13:53;;;;;;;16.37;14.77;;;;;;;16.14;68.39;99100.41;4131298;28;20650;-90
2022/04/29 07:15:56;;;;;;;15.30;13.90;;;;;;;16.36;69.57;99103.16;4142729;28;20622;-89
2022/04/29 07:18:32;;;;;;;15.50;13.93;;;;;;;16.69;71.23;99109.31;4146063;28;20748;-89
2022/04/29 07:20:36;;;;;;;17.87;15.90;;;;;;;16.94;70.00;99103.00;4137110;28;20643;-90
2022/04/29 07:22:41;;;;;;;18.10;15.17;;;;;;;17.10;71.02;99093.78;4128886;28;21141;-88
2022/04/29 07:24:46;;;;;;;15.37;13.97;;;;;;;17.12;70.82;99097.13;4130312;28;20638;-89
2022/04/29 07:26:50;;;;;;;15.13;13.73;;;;;;;17.18;71.25;99094.00;4139539;28;20642;-89
2022/04/29 07:28:54;;;;;;;16.97;15.23;;;;;;;17.19;71.70;99091.25;4143656;28;20646;-89
2022/04/29 07:31:01;;;;;;;15.17;13.63;;;;;;;17.26;69.70;99083.72;4140452;28;20675;-89
2022/04/29 07:33:24;;;;;;;16.27;14.67;;;;;;;17.44;70.82;99087.53;4138393;28;20689;-89
2022/04/29 07:43:00;;;;;;;14.30;12.90;;;;;;;18.24;69.17;99089.59;4142984;28;20685;-89
2022/04/29 07:45:07;;;;;;;14.37;12.97;;;;;;;18.52;69.00;99095.09;4126522;28;20864;-89
2022/04/29 07:47:39;;;;;;;13.40;12.10;;;;;;;18.78;67.67;99088.44;4134411;28;20681;-88
2022/04/29 07:49:59;;;;;;;13.80;12.50;;;;;;;19.08;70.07;99088.47;4145313;28;21042;-86
2022/04/29 07:52:05;;;;;;;13.30;12.03;;;;;;;19.37;67.77;99086.78;4145852;28;20676;-86
2022/04/29 07:54:11;;;;;;;12.73;11.40;;;;;;;19.77;66.16;99089.22;4130197;28;20666;-87
2022/04/29 07:56:16;;;;;;;14.00;12.70;;;;;;;20.11;65.95;99090.53;4145840;28;20651;-85
2022/04/29 07:58:21;;;;;;;12.17;10.73;;;;;;;20.37;64.15;99087.16;4126491;28;21249;-87
2022/04/29 08:00:24;;;;;;;12.97;11.70;;;;;;;20.64;63.55;99092.59;4147178;28;20626;-87
2022/04/29 08:02:28;;;;;;;13.07;11.60;;;;;;;20.87;63.48;99086.84;4144643;28;20697;-87
2022/04/29 08:04:32;;;;;;;12.03;11.00;;;;;;;21.12;64.11;99086.19;4124322;28;20659;-91
2022/04/29 08:06:36;;;;;;;11.97;10.77;;;;;;;21.34;63.54;99089.31;4140387;28;21213;-91
2022/04/29 08:09:00;;;;;;;11.10;10.10;;;;;;;21.31;59.15;99077.16;4133960;28;20647;-92
2022/04/29 08:11:04;;;;;;;12.70;11.13;;;;;;;21.24;60.73;99077.91;4142632;28;20642;-90
2022/04/29 08:13:15;;;;;;;10.80;9.70;;;;;;;21.10;59.15;99083.69;4143416;28;20618;-92
2022/04/29 08:15:48;;;;;;;10.83;9.83;;;;;;;20.83;60.16;99074.84;4159911;28;21241;-92
2022/04/29 08:18:10;;;;;;;10.10;9.10;;;;;;;20.66;61.16;99077.34;4141156;28;20654;-91
2022/04/29 08:20:13;;;;;;;10.00;9.10;;;;;;;20.52;59.01;99075.16;4127687;28;20638;-92
2022/04/29 08:22:20;;;;;;;9.30;8.50;;;;;;;20.37;56.46;99063.31;4128735;28;21067;-92
2022/04/29 08:24:27;;;;;;;10.03;9.03;;;;;;;20.29;60.46;99070.31;4133331;28;21280;-91
2022/04/29 08:26:30;;;;;;;9.40;8.50;;;;;;;20.22;59.11;99066.53;4139934;28;20622;-92
2022/04/29 08:28:35;;;;;;;9.77;8.90;;;;;;;20.17;59.00;99074.09;4126807;28;20750;-94
2022/04/29 08:30:39;;;;;;;10.37;9.40;;;;;;;20.23;62.21;99069.06;4125252;28;20627;-90
2022/04/29 08:32:44;;;;;;;12.13;11.03;;;;;;;20.46;63.44;99073.94;4144056;28;20721;-92
2022/04/29 08:34:59;;;;;;;10.23;9.33;;;;;;;20.51;59.87;99070.84;4144773;28;20618;-93
2022/04/29 08:37:03;;;;;;;9.97;8.97;;;;;;;20.46;58.56;99068.63;4136621;28;21132;-91
2022/04/29 08:39:12;;;;;;;8.83;7.27;;;;;;;20.38;56.99;99070.31;4140033;28;20634;-93
2022/04/29 08:41:19;;;;;;;7.57;6.87;;;;;;;20.24;53.71;99062.78;4132854;28;20636;-92
2022/04/29 08:43:23;;;;;;;8.37;6.70;;;;;;;20.24;52.64;99068.09;4130183;28;20615;-92
2022/04/29 08:45:30;;;;;;;7.30;6.60;;;;;;;20.23;53.11;99061.09;4144957;28;20631;-92
2022/04/29 08:47:52;;;;;;;7.10;6.40;;;;;;;20.09;51.70;99069.47;4154375;28;20675;-92
2022/04/29 08:49:56;;;;;;;7.10;6.40;;;;;;;19.97;50.77;99059.19;4158929;28;20641;-92
2022/04/29 08:52:00;;;;;;;10.13;6.80;;;;;;;19.95;52.45;99064.59;4140393;28;21039;-90
2022/04/29 08:54:04;;;;;;;7.70;6.93;;;;;;;19.88;50.69;99071.44;4126143;28;20717;-92
2022/04/29 08:58:39;;;;;;;7.30;6.60;;;;;;;20.00;51.65;99059.72;4136935;28;20636;-90
2022/04/29 09:00:44;;;;;;;7.97;6.50;;;;;;;20.14;51.51;99054.00;4135516;28;20708;-89
2022/04/29 09:02:47;;;;;;;7.33;6.30;;;;;;;20.22;51.43;99056.81;4118731;28;21064;-90
2022/04/29 09:04:53;;;;;;;10.33;6.83;;;;;;;20.24;50.67;99059.31;4122126;28;21026;-89
2022/04/29 09:06:57;;;;;;;7.60;6.67;;;;;;;20.36;52.35;99045.75;4130835;28;20646;-90
2022/04/29 09:09:08;;;;;;;7.37;6.00;;;;;;;20.53;50.67;99050.34;4123319;28;20660;-89
2022/04/29 09:11:12;;;;;;;8.73;6.90;;;;;;;20.57;49.54;99049.91;4141842;28;20621;-88
2022/04/29 09:13:17;;;;;;;6.43;5.83;;;;;;;20.73;49.59;99051.97;4134506;28;20627;-90
2022/04/29 09:15:23;;;;;;;6.70;6.10;;;;;;;20.97;50.19;99054.00;4135603;28;20675;-90
2022/04/29 09:17:27;;;;;;;6.53;5.93;;;;;;;21.30;52.29;99048.09;4120789;28;20635;-90
2022/04/29 09:19:32;;;;;;;7.80;7.10;;;;;;;21.57;49.47;99062.25;4129221;28;20627;-92
2022/04/29 09:21:35;;;;;;;6.53;5.83;;;;;;;21.54;47.95;99059.88;4140402;28;21308;-91
2022/04/29 09:23:40;;;;;;;6.60;5.97;;;;;;;21.59;47.02;99051.47;4141216;28;20725;-90
2022/04/29 09:26:05;;;;;;;9.13;5.87;;;;;;;21.82;45.89;99050.91;4134480;28;20649;-90
2022/04/29 09:28:32;;;;;;;8.77;6.20;;;;;;;21.98;47.65;99048.38;4154352;28;20713;-89
2022/04/29 09:30:57;;;;;;;6.93;6.10;;;;;;;22.02;46.66;99042.63;4139784;28;20622;-89
2022/04/29 09:33:20;;;;;;;7.73;5.70;;;;;;;22.06;46.64;99035.19;4134783;28;20630;-91
2022/04/29 09:35:47;;;;;;;8.57;6.20;;;;;;;21.93;46.05;99037.38;4137114;28;20753;-89
2022/04/29 09:40:10;;;;;;;7.80;6.00;;;;;;;21.93;46.04;99040.03;4153041;28;20677;-89
2022/04/29 09:42:13;;;;;;;7.70;6.10;;;;;;;21.85;44.68;99034.66;4121144;28;20632;-91
2022/04/29 09:44:26;;;;;;;6.60;5.87;;;;;;;21.76;46.81;99022.28;4123712;28;20647;-89
2022/04/29 09:46:32;;;;;;;6.83;6.13;;;;;;;21.68;46.25;99016.91;4140045;28;20651;-90
2022/04/29 09:48:54;;;;;;;6.77;6.00;;;;;;;21.70;46.06;99020.22;4152118;28;20665;-89
2022/04/29 09:50:57;;;;;;;6.87;6.17;;;;;;;21.88;46.71;99026.38;4139123;28;20685;-90
2022/04/29 09:53:16;;;;;;;8.33;7.50;;;;;;;22.18;47.19;99020.69;4133282;28;20635;-90
2022/04/29 09:55:21;;;;;;;6.77;6.17;;;;;;;22.16;45.54;99012.00;4152731;28;21068;-90
2022/04/29 09:57:24;;;;;;;7.13;6.40;;;;;;;21.93;45.81;99011.63;4121925;28;20624;-91
2022/04/29 09:59:28;;;;;;;6.95;6.10;;;;;;;22.02;46.31;99012.56;4130768;28;20748;-90
2022/04/29 10:01:33;;;;;;;7.07;6.47;;;;;;;22.06;46.47;99011.28;4125212;28;20212;-90
2022/04/29 10:03:36;;;;;;;7.50;6.70;;;;;;;22.16;45.12;99014.66;4143822;28;20996;-90
2022/04/29 10:05:43;;;;;;;12.63;6.10;;;;;;;22.24;47.54;99003.13;4142298;28;20635;-90
2022/04/29 10:07:47;;;;;;;7.27;6.67;;;;;;;22.20;46.09;99000.91;4131254;28;20667;-88
2022/04/29 10:09:52;;;;;;;6.97;6.37;;;;;;;22.18;46.08;98989.59;4152228;28;21025;-89
2022/04/29 10:11:57;;;;;;;7.07;6.33;;;;;;;22.17;47.39;98987.94;4140015;28;20664;-90
2022/04/29 10:14:03;;;;;;;6.47;5.90;;;;;;;22.13;46.12;98980.41;4126207;28;21202;-90
2022/04/29 10:16:12;;;;;;;6.93;6.33;;;;;;;22.04;45.74;98976.88;4127855;28;20632;-91
2022/04/29 10:21:39;;;;;;;6.47;5.67;;;;;;;21.90;46.88;98985.38;4089541;28;20638;-91